Latest Weather Observations for Kurnell

IDN60801

Issued at 8:03 am EST Saturday 29 August 2015 (issued every 30 minutes, with the page automatically refreshed every 10 minutes)

About weather observations | Map of weather stations | Latest weather observations for NSW | Other Formats
Station Details ID: 066043 Name: KURNELL AWS Lat: -34.00 Lon: 151.21 Height: 4.0 m
Data from the previous 72 hours. | See also: Recent months for locations in New South Wales
Date/Time
EST
Temp
°C
App
Temp
°C
Dew
Point
Rel
Hum
%
Delta-T
°C
Wind Press
QNH
hPa
Press
MSL
hPa
Rain
since 9 am
mm
Dir
 
Spd
km/h
Gust
km/h
Spd
kts
Gust
kts
29/08:00am - - - - - NW 15 17 8 9 - - -
29/07:30am - - - - - W 11 13 6 7 - - -
29/07:00am - - - - - WNW 11 15 6 8 - - -
29/06:30am - - - - - NW 13 15 7 8 - - -
29/06:00am - - - - - NW 13 15 7 8 - - -
29/05:30am - - - - - SW 2 7 1 4 - - -
29/05:00am - - - - - W 7 9 4 5 - - -
29/04:30am - - - - - WSW 11 13 6 7 - - -
29/04:00am - - - - - WSW 13 15 7 8 - - -
29/03:30am - - - - - WSW 15 17 8 9 - - -
29/03:00am - - - - - SSW 15 15 8 8 - - -
29/02:30am - - - - - SSW 13 17 7 9 - - -
29/02:00am - - - - - WSW 7 9 4 5 - - -
29/01:30am - - - - - WSW 9 9 5 5 - - -
29/01:00am - - - - - SW 13 17 7 9 - - -
29/12:30am - - - - - SW 13 15 7 8 - - -
29/12:00am - - - - - WSW 17 19 9 10 - - -
 
Date/Time
EST
Temp
°C
App
Temp
°C
Dew
Point
Rel
Hum
%
Delta-T
°C
Wind Press
QNH
hPa
Press
MSL
hPa
Rain
since 9 am
mm
Dir
 
Spd
km/h
Gust
km/h
Spd
kts
Gust
kts
28/11:30pm - - - - - W 19 20 10 11 - - -
28/11:00pm - - - - - SW 17 22 9 12 - - -
28/10:30pm - - - - - SW 13 17 7 9 - - -
28/10:00pm - - - - - SSW 17 24 9 13 - - -
28/09:30pm - - - - - SSW 19 26 10 14 - - -
28/09:00pm - - - - - SSW 20 30 11 16 - - -
28/08:30pm - - - - - SSW 26 35 14 19 - - -
28/08:00pm - - - - - SSW 19 24 10 13 - - -
28/07:30pm - - - - - SSW 20 28 11 15 - - -
28/07:00pm - - - - - SSW 22 30 12 16 - - -
28/06:30pm - - - - - SSW 20 28 11 15 - - -
28/06:00pm - - - - - SSW 24 33 13 18 - - -
28/05:30pm - - - - - S 26 33 14 18 - - -
28/05:00pm - - - - - SSW 22 30 12 16 - - -
28/04:30pm - - - - - S 28 35 15 19 - - -
28/04:00pm - - - - - S 22 30 12 16 - - -
28/03:30pm - - - - - S 28 35 15 19 - - -
28/03:00pm - - - - - SSW 28 35 15 19 - - -
28/02:30pm - - - - - SSW 26 33 14 18 - - -
28/02:00pm - - - - - SSW 32 39 17 21 - - -
28/01:30pm - - - - - SSW 32 39 17 21 - - -
28/01:00pm - - - - - SSW 28 37 15 20 - - -
28/12:30pm - - - - - SW 26 37 14 20 - - -
28/12:00pm - - - - - W 24 33 13 18 - - -
28/11:30am - - - - - W 24 35 13 19 - - -
28/11:00am - - - - - W 30 35 16 19 - - -
28/10:30am - - - - - W 30 37 16 20 - - -
28/10:00am - - - - - W 37 46 20 25 - - -
28/09:30am - - - - - W 33 46 18 25 - - -
28/09:00am - - - - - W 30 39 16 21 - - -
28/08:30am - - - - - WNW 26 30 14 16 - - -
28/08:00am - - - - - W 28 33 15 18 - - -
28/07:30am - - - - - WNW 28 33 15 18 - - -
28/07:00am - - - - - WNW 30 35 16 19 - - -
28/06:30am - - - - - WNW 33 37 18 20 - - -
28/06:00am - - - - - NW 28 33 15 18 - - -
28/05:30am - - - - - NW 28 33 15 18 - - -
28/05:00am - - - - - NW 28 30 15 16 - - -
28/04:30am - - - - - NW 28 32 15 17 - - -
28/04:00am - - - - - NW 26 30 14 16 - - -
28/03:30am - - - - - NNW 22 32 12 17 - - -
28/03:00am - - - - - NNW 24 32 13 17 - - -
28/02:30am - - - - - NW 24 28 13 15 - - -
28/02:00am - - - - - NW 24 28 13 15 - - -
28/01:30am - - - - - NW 24 28 13 15 - - -
28/01:00am - - - - - NW 30 33 16 18 - - -
28/12:30am - - - - - WNW 32 39 17 21 - - -
28/12:00am - - - - - WNW 28 33 15 18 - - -
 
Date/Time
EST
Temp
°C
App
Temp
°C
Dew
Point
Rel
Hum
%
Delta-T
°C
Wind Press
QNH
hPa
Press
MSL
hPa
Rain
since 9 am
mm
Dir
 
Spd
km/h
Gust
km/h
Spd
kts
Gust
kts
27/11:30pm - - - - - WNW 30 37 16 20 - - -
27/11:00pm - - - - - WNW 22 28 12 15 - - -
27/10:30pm - - - - - NW 24 30 13 16 - - -
27/10:00pm - - - - - NW 28 32 15 17 - - -
27/09:30pm - - - - - NW 32 35 17 19 - - -
27/09:00pm - - - - - NW 26 30 14 16 - - -
27/08:30pm - - - - - NW 26 32 14 17 - - -
27/08:00pm - - - - - NW 22 28 12 15 - - -
27/07:30pm - - - - - WNW 24 28 13 15 - - -
27/07:00pm - - - - - W 33 39 18 21 - - -
27/06:30pm - - - - - W 32 41 17 22 - - -
27/06:00pm - - - - - W 26 43 14 23 - - -
27/05:30pm - - - - - NNW 15 20 8 11 - - -
27/05:00pm - - - - - NW 22 26 12 14 - - -
27/04:30pm - - - - - NW 24 30 13 16 - - -
27/04:00pm - - - - - NNW 24 30 13 16 - - -
27/03:30pm - - - - - NW 24 30 13 16 - - -
27/03:00pm - - - - - NW 26 33 14 18 - - -
27/02:30pm - - - - - NW 19 26 10 14 - - -
27/02:00pm - - - - - NW 13 17 7 9 - - -
27/01:30pm - - - - - NW 9 13 5 7 - - -
27/01:00pm - - - - - NNW 11 15 6 8 - - -
27/12:30pm - - - - - NNW 9 15 5 8 - - -
27/12:00pm - - - - - NW 13 13 7 7 - - -
27/11:30am - - - - - NW 17 19 9 10 - - -
27/11:00am - - - - - NW 19 26 10 14 - - -
27/10:30am - - - - - NW 11 17 6 9 - - -
27/10:00am - - - - - WNW 7 9 4 5 - - -
27/09:30am - - - - - WNW 11 13 6 7 - - -
27/09:00am - - - - - NW 17 22 9 12 - - -
27/08:30am - - - - - NW 19 24 10 13 - - -
27/08:00am - - - - - NW 17 19 9 10 - - -
27/07:30am - - - - - NW 9 11 5 6 - - -
27/07:00am - - - - - WNW 15 17 8 9 - - -
27/06:30am - - - - - WNW 17 19 9 10 - - -
27/06:00am - - - - - NW 17 19 9 10 - - -
27/05:30am - - - - - NW 11 13 6 7 - - -
27/05:00am - - - - - WNW 11 13 6 7 - - -
27/04:30am - - - - - WNW 15 17 8 9 - - -
27/04:00am - - - - - WNW 15 17 8 9 - - -
27/03:30am - - - - - WNW 11 15 6 8 - - -
27/03:00am - - - - - WNW 11 13 6 7 - - -
27/02:30am - - - - - WNW 13 15 7 8 - - -
27/02:00am - - - - - WNW 13 15 7 8 - - -
27/01:30am - - - - - WNW 11 13 6 7 - - -
27/01:00am - - - - - NW 13 15 7 8 - - -
27/12:30am - - - - - SSW 4 6 2 3 - - -
27/12:00am - - - - - WSW 7 9 4 5 - - -
 
Date/Time
EST
Temp
°C
App
Temp
°C
Dew
Point
Rel
Hum
%
Delta-T
°C
Wind Press
QNH
hPa
Press
MSL
hPa
Rain
since 9 am
mm
Dir
 
Spd
km/h
Gust
km/h
Spd
kts
Gust
kts
26/11:30pm - - - - - WNW 11 13 6 7 - - -
26/11:00pm - - - - - W 11 13 6 7 - - -
26/10:30pm - - - - - W 11 13 6 7 - - -
26/10:00pm - - - - - WSW 9 13 5 7 - - -
26/09:30pm - - - - - WSW 15 17 8 9 - - -
26/09:00pm - - - - - SW 15 19 8 10 - - -
26/08:30pm - - - - - SW 13 15 7 8 - - -
26/08:00pm - - - - - SW 13 15 7 8 - - -
26/07:30pm - - - - - SW 17 22 9 12 - - -
26/07:00pm - - - - - SSW 13 15 7 8 - - -
26/06:30pm - - - - - SW 11 13 6 7 - - -
26/06:00pm - - - - - SW 13 17 7 9 - - -
26/05:30pm - - - - - SSW 13 15 7 8 - - -
26/05:00pm - - - - - SSW 17 20 9 11 - - -
26/04:30pm - - - - - SW 15 19 8 10 - - -
26/04:00pm - - - - - SSW 19 26 10 14 - - -
26/03:30pm - - - - - SSW 19 24 10 13 - - -
26/03:00pm - - - - - SSW 28 35 15 19 - - -
26/02:30pm - - - - - SSW 24 32 13 17 - - -
26/02:00pm - - - - - SSW 22 28 12 15 - - -
26/01:30pm - - - - - SSW 26 30 14 16 - - -
26/01:00pm - - - - - SSW 24 32 13 17 - - -
26/12:30pm - - - - - SSW 22 32 12 17 - - -
26/12:00pm - - - - - S 17 26 9 14 - - -
26/11:30am - - - - - SSE 13 24 7 13 - - -
26/11:00am - - - - - SE 15 19 8 10 - - -
26/10:30am - - - - - SSE 15 19 8 10 - - -
26/10:00am - - - - - SSE 13 20 7 11 - - -
26/09:30am - - - - - SE 13 17 7 9 - - -
26/09:00am - - - - - SSE 13 19 7 10 - - -
26/08:30am - - - - - SSE 15 17 8 9 - - -

Other Formats:

Comma delimited format used in spreadsheet applications
http://www.bom.gov.au/fwo/IDN60801/IDN60801.95756.axf

JavaScript Object Notation format (JSON) in row-major order
http://www.bom.gov.au/fwo/IDN60801/IDN60801.95756.json